sensor_id;sensor_type;location;lat;lon;timestamp;temperature;humidity
12977;DHT22;6553;48.412;9.514;2023-05-10T00:00:27;19.70;68.90
12977;DHT22;6553;48.412;9.514;2023-05-10T00:02:52;19.70;68.80
12977;DHT22;6553;48.412;9.514;2023-05-10T00:05:18;19.70;68.80
12977;DHT22;6553;48.412;9.514;2023-05-10T00:07:44;19.70;68.80
12977;DHT22;6553;48.412;9.514;2023-05-10T00:10:11;19.70;68.80
12977;DHT22;6553;48.412;9.514;2023-05-10T00:12:37;19.70;68.80
12977;DHT22;6553;48.412;9.514;2023-05-10T00:15:03;19.70;68.80
12977;DHT22;6553;48.412;9.514;2023-05-10T00:17:29;19.70;68.80
12977;DHT22;6553;48.412;9.514;2023-05-10T00:19:55;19.70;68.70
12977;DHT22;6553;48.412;9.514;2023-05-10T00:22:21;19.70;68.70
12977;DHT22;6553;48.412;9.514;2023-05-10T00:24:47;19.70;68.70
12977;DHT22;6553;48.412;9.514;2023-05-10T00:27:13;19.70;68.80
12977;DHT22;6553;48.412;9.514;2023-05-10T00:29:38;19.70;68.70
12977;DHT22;6553;48.412;9.514;2023-05-10T00:32:04;19.60;68.70
12977;DHT22;6553;48.412;9.514;2023-05-10T00:34:30;19.60;68.70
12977;DHT22;6553;48.412;9.514;2023-05-10T00:36:56;19.70;68.80
12977;DHT22;6553;48.412;9.514;2023-05-10T00:39:22;19.70;68.70
12977;DHT22;6553;48.412;9.514;2023-05-10T00:41:48;19.70;68.70
12977;DHT22;6553;48.412;9.514;2023-05-10T00:44:15;19.60;68.70
12977;DHT22;6553;48.412;9.514;2023-05-10T00:46:41;19.60;68.60
12977;DHT22;6553;48.412;9.514;2023-05-10T00:49:07;19.60;68.60
12977;DHT22;6553;48.412;9.514;2023-05-10T00:51:33;19.60;68.70
12977;DHT22;6553;48.412;9.514;2023-05-10T00:53:59;19.60;68.70
12977;DHT22;6553;48.412;9.514;2023-05-10T00:56:25;19.60;68.70
12977;DHT22;6553;48.412;9.514;2023-05-10T00:58:52;19.60;68.70
12977;DHT22;6553;48.412;9.514;2023-05-10T01:01:19;19.60;68.70
12977;DHT22;6553;48.412;9.514;2023-05-10T01:03:45;19.60;68.70
12977;DHT22;6553;48.412;9.514;2023-05-10T01:06:12;19.60;68.70
12977;DHT22;6553;48.412;9.514;2023-05-10T01:08:39;19.60;68.70
12977;DHT22;6553;48.412;9.514;2023-05-10T01:11:05;19.60;68.70
12977;DHT22;6553;48.412;9.514;2023-05-10T01:13:34;19.60;68.70
12977;DHT22;6553;48.412;9.514;2023-05-10T01:16:03;19.60;68.70
12977;DHT22;6553;48.412;9.514;2023-05-10T01:18:39;19.60;68.70
12977;DHT22;6553;48.412;9.514;2023-05-10T01:21:38;19.60;68.60
12977;DHT22;6553;48.412;9.514;2023-05-10T01:33:15;19.60;68.60
12977;DHT22;6553;48.412;9.514;2023-05-10T01:36:01;19.60;68.60
12977;DHT22;6553;48.412;9.514;2023-05-10T01:47:37;19.60;68.50
12977;DHT22;6553;48.412;9.514;2023-05-10T01:50:10;19.60;68.50
12977;DHT22;6553;48.412;9.514;2023-05-10T01:52:49;19.60;68.50
12977;DHT22;6553;48.412;9.514;2023-05-10T01:55:20;19.60;68.50
12977;DHT22;6553;48.412;9.514;2023-05-10T01:57:55;19.60;68.50
12977;DHT22;6553;48.412;9.514;2023-05-10T02:00:27;19.60;68.50
12977;DHT22;6553;48.412;9.514;2023-05-10T02:02:55;19.60;68.50
12977;DHT22;6553;48.412;9.514;2023-05-10T02:05:22;19.60;68.50
12977;DHT22;6553;48.412;9.514;2023-05-10T02:07:50;19.60;68.50
12977;DHT22;6553;48.412;9.514;2023-05-10T02:10:17;19.60;68.50
12977;DHT22;6553;48.412;9.514;2023-05-10T02:12:47;19.60;68.50
12977;DHT22;6553;48.412;9.514;2023-05-10T02:15:18;19.60;68.50
12977;DHT22;6553;48.412;9.514;2023-05-10T02:17:47;19.60;68.50
12977;DHT22;6553;48.412;9.514;2023-05-10T02:20:13;19.60;68.50
12977;DHT22;6553;48.412;9.514;2023-05-10T02:22:41;19.60;68.50
12977;DHT22;6553;48.412;9.514;2023-05-10T02:25:12;19.60;68.60
12977;DHT22;6553;48.412;9.514;2023-05-10T02:27:41;19.60;68.50
12977;DHT22;6553;48.412;9.514;2023-05-10T02:30:10;19.60;68.50
12977;DHT22;6553;48.412;9.514;2023-05-10T02:32:37;19.60;68.50
12977;DHT22;6553;48.412;9.514;2023-05-10T02:35:03;19.60;68.50
12977;DHT22;6553;48.412;9.514;2023-05-10T02:37:31;19.60;68.50
12977;DHT22;6553;48.412;9.514;2023-05-10T02:39:58;19.50;68.40
12977;DHT22;6553;48.412;9.514;2023-05-10T02:42:28;19.60;69.20
12977;DHT22;6553;48.412;9.514;2023-05-10T02:45:01;19.60;68.50
12977;DHT22;6553;48.412;9.514;2023-05-10T02:47:28;19.60;68.40
12977;DHT22;6553;48.412;9.514;2023-05-10T02:49:55;19.60;68.40
12977;DHT22;6553;48.412;9.514;2023-05-10T02:52:30;19.60;68.30
12977;DHT22;6553;48.412;9.514;2023-05-10T02:55:05;19.60;68.30
12977;DHT22;6553;48.412;9.514;2023-05-10T02:57:34;19.60;68.30
12977;DHT22;6553;48.412;9.514;2023-05-10T03:00:04;19.50;68.30
12977;DHT22;6553;48.412;9.514;2023-05-10T03:02:30;19.60;68.40
12977;DHT22;6553;48.412;9.514;2023-05-10T03:04:56;19.60;68.40
12977;DHT22;6553;48.412;9.514;2023-05-10T03:07:22;19.50;68.30
12977;DHT22;6553;48.412;9.514;2023-05-10T03:09:49;19.50;68.20
12977;DHT22;6553;48.412;9.514;2023-05-10T03:12:47;19.50;68.30
12977;DHT22;6553;48.412;9.514;2023-05-10T03:18:33;19.60;68.30
12977;DHT22;6553;48.412;9.514;2023-05-10T03:21:08;19.50;68.20
12977;DHT22;6553;48.412;9.514;2023-05-10T03:26:27;19.60;68.30
12977;DHT22;6553;48.412;9.514;2023-05-10T03:29:02;19.50;68.20
12977;DHT22;6553;48.412;9.514;2023-05-10T03:31:29;19.50;68.20
12977;DHT22;6553;48.412;9.514;2023-05-10T03:33:55;19.50;68.20
12977;DHT22;6553;48.412;9.514;2023-05-10T03:36:25;19.50;68.20
12977;DHT22;6553;48.412;9.514;2023-05-10T03:38:51;19.50;68.10
12977;DHT22;6553;48.412;9.514;2023-05-10T03:41:17;19.50;68.10
12977;DHT22;6553;48.412;9.514;2023-05-10T03:43:43;19.50;68.10
12977;DHT22;6553;48.412;9.514;2023-05-10T03:46:08;19.50;68.10
12977;DHT22;6553;48.412;9.514;2023-05-10T03:48:34;19.50;68.10
12977;DHT22;6553;48.412;9.514;2023-05-10T03:51:00;19.50;68.10
12977;DHT22;6553;48.412;9.514;2023-05-10T03:53:26;19.50;68.10
12977;DHT22;6553;48.412;9.514;2023-05-10T03:55:52;19.50;68.10
12977;DHT22;6553;48.412;9.514;2023-05-10T03:58:18;19.50;68.10
12977;DHT22;6553;48.412;9.514;2023-05-10T04:00:44;19.50;68.10
12977;DHT22;6553;48.412;9.514;2023-05-10T04:03:12;19.50;68.10
12977;DHT22;6553;48.412;9.514;2023-05-10T04:05:38;19.50;68.10
12977;DHT22;6553;48.412;9.514;2023-05-10T04:08:04;19.50;68.10
12977;DHT22;6553;48.412;9.514;2023-05-10T04:10:31;19.50;68.10
12977;DHT22;6553;48.412;9.514;2023-05-10T04:12:57;19.50;68.10
12977;DHT22;6553;48.412;9.514;2023-05-10T04:15:23;19.50;68.10
12977;DHT22;6553;48.412;9.514;2023-05-10T04:17:49;19.50;68.10
12977;DHT22;6553;48.412;9.514;2023-05-10T04:20:15;19.50;68.00
12977;DHT22;6553;48.412;9.514;2023-05-10T04:22:41;19.50;68.10
12977;DHT22;6553;48.412;9.514;2023-05-10T04:25:07;19.50;68.00
12977;DHT22;6553;48.412;9.514;2023-05-10T04:27:33;19.50;68.00
12977;DHT22;6553;48.412;9.514;2023-05-10T04:29:59;19.50;68.00
12977;DHT22;6553;48.412;9.514;2023-05-10T04:32:25;19.50;68.00
12977;DHT22;6553;48.412;9.514;2023-05-10T04:34:51;19.50;68.00
12977;DHT22;6553;48.412;9.514;2023-05-10T04:37:17;19.50;68.00
12977;DHT22;6553;48.412;9.514;2023-05-10T04:39:43;19.50;68.00
12977;DHT22;6553;48.412;9.514;2023-05-10T04:42:09;19.50;68.00
12977;DHT22;6553;48.412;9.514;2023-05-10T04:44:35;19.50;68.00
12977;DHT22;6553;48.412;9.514;2023-05-10T04:47:01;19.50;68.00
12977;DHT22;6553;48.412;9.514;2023-05-10T04:49:29;19.50;68.00
12977;DHT22;6553;48.412;9.514;2023-05-10T04:51:55;19.50;68.00
12977;DHT22;6553;48.412;9.514;2023-05-10T04:54:21;19.50;67.90
12977;DHT22;6553;48.412;9.514;2023-05-10T04:56:47;19.50;68.00
12977;DHT22;6553;48.412;9.514;2023-05-10T04:59:13;19.50;68.00
12977;DHT22;6553;48.412;9.514;2023-05-10T05:01:39;19.50;68.00
12977;DHT22;6553;48.412;9.514;2023-05-10T05:04:05;19.50;68.00
12977;DHT22;6553;48.412;9.514;2023-05-10T05:06:31;19.50;68.00
12977;DHT22;6553;48.412;9.514;2023-05-10T05:08:56;19.50;68.00
12977;DHT22;6553;48.412;9.514;2023-05-10T05:11:22;19.50;68.00
12977;DHT22;6553;48.412;9.514;2023-05-10T05:13:48;19.50;68.00
12977;DHT22;6553;48.412;9.514;2023-05-10T05:16:14;19.50;68.00
12977;DHT22;6553;48.412;9.514;2023-05-10T05:18:39;19.50;68.00
12977;DHT22;6553;48.412;9.514;2023-05-10T05:21:15;19.50;68.00
12977;DHT22;6553;48.412;9.514;2023-05-10T05:23:42;19.50;68.00
12977;DHT22;6553;48.412;9.514;2023-05-10T05:26:08;19.50;68.70
12977;DHT22;6553;48.412;9.514;2023-05-10T05:28:35;19.50;68.00
12977;DHT22;6553;48.412;9.514;2023-05-10T05:31:03;19.50;67.90
12977;DHT22;6553;48.412;9.514;2023-05-10T05:33:29;19.50;67.90
12977;DHT22;6553;48.412;9.514;2023-05-10T05:35:55;19.50;67.90
12977;DHT22;6553;48.412;9.514;2023-05-10T05:38:21;19.50;67.90
12977;DHT22;6553;48.412;9.514;2023-05-10T05:40:47;19.50;67.90
12977;DHT22;6553;48.412;9.514;2023-05-10T05:43:12;19.50;67.90
12977;DHT22;6553;48.412;9.514;2023-05-10T05:45:38;19.50;68.00
12977;DHT22;6553;48.412;9.514;2023-05-10T05:48:04;19.50;68.00
12977;DHT22;6553;48.412;9.514;2023-05-10T05:50:30;19.50;68.00
12977;DHT22;6553;48.412;9.514;2023-05-10T05:52:56;19.50;68.00
12977;DHT22;6553;48.412;9.514;2023-05-10T05:55:22;19.50;68.00
12977;DHT22;6553;48.412;9.514;2023-05-10T05:57:49;19.50;68.00
12977;DHT22;6553;48.412;9.514;2023-05-10T06:00:15;19.50;68.00
12977;DHT22;6553;48.412;9.514;2023-05-10T06:02:41;19.40;67.90
12977;DHT22;6553;48.412;9.514;2023-05-10T06:05:07;19.40;68.00
12977;DHT22;6553;48.412;9.514;2023-05-10T06:07:33;19.40;68.00
12977;DHT22;6553;48.412;9.514;2023-05-10T06:09:59;19.50;68.00
12977;DHT22;6553;48.412;9.514;2023-05-10T06:12:25;19.40;67.90
12977;DHT22;6553;48.412;9.514;2023-05-10T06:14:50;19.50;68.00
12977;DHT22;6553;48.412;9.514;2023-05-10T06:17:16;19.50;68.00
12977;DHT22;6553;48.412;9.514;2023-05-10T06:19:42;19.50;68.00
12977;DHT22;6553;48.412;9.514;2023-05-10T06:22:07;19.50;68.00
12977;DHT22;6553;48.412;9.514;2023-05-10T06:24:33;19.50;68.00
12977;DHT22;6553;48.412;9.514;2023-05-10T06:26:59;19.50;68.00
12977;DHT22;6553;48.412;9.514;2023-05-10T06:29:26;19.50;68.00
12977;DHT22;6553;48.412;9.514;2023-05-10T06:31:51;19.50;67.90
12977;DHT22;6553;48.412;9.514;2023-05-10T06:34:17;19.50;68.00
12977;DHT22;6553;48.412;9.514;2023-05-10T06:36:43;19.50;68.10
12977;DHT22;6553;48.412;9.514;2023-05-10T06:39:08;19.50;68.00
12977;DHT22;6553;48.412;9.514;2023-05-10T06:41:34;19.50;68.00
12977;DHT22;6553;48.412;9.514;2023-05-10T06:44:00;19.50;67.90
12977;DHT22;6553;48.412;9.514;2023-05-10T06:46:26;19.50;68.00
12977;DHT22;6553;48.412;9.514;2023-05-10T06:48:51;19.50;68.00
12977;DHT22;6553;48.412;9.514;2023-05-10T06:51:17;19.50;68.00
12977;DHT22;6553;48.412;9.514;2023-05-10T06:53:43;19.50;68.00
12977;DHT22;6553;48.412;9.514;2023-05-10T06:56:09;19.50;68.00
12977;DHT22;6553;48.412;9.514;2023-05-10T06:58:34;19.50;67.90
12977;DHT22;6553;48.412;9.514;2023-05-10T07:01:04;19.50;68.00
12977;DHT22;6553;48.412;9.514;2023-05-10T07:03:31;19.50;67.90
12977;DHT22;6553;48.412;9.514;2023-05-10T07:06:01;19.50;67.90
12977;DHT22;6553;48.412;9.514;2023-05-10T07:08:35;19.50;67.90
12977;DHT22;6553;48.412;9.514;2023-05-10T07:11:02;19.50;67.90
12977;DHT22;6553;48.412;9.514;2023-05-10T07:13:33;19.50;67.90
12977;DHT22;6553;48.412;9.514;2023-05-10T07:16:00;19.50;67.90
12977;DHT22;6553;48.412;9.514;2023-05-10T07:18:27;19.50;67.90
12977;DHT22;6553;48.412;9.514;2023-05-10T07:20:53;19.50;68.70
12977;DHT22;6553;48.412;9.514;2023-05-10T07:23:19;19.50;67.90
12977;DHT22;6553;48.412;9.514;2023-05-10T07:25:46;19.50;67.90
12977;DHT22;6553;48.412;9.514;2023-05-10T07:28:14;19.50;68.70
12977;DHT22;6553;48.412;9.514;2023-05-10T07:30:41;19.50;67.90
12977;DHT22;6553;48.412;9.514;2023-05-10T07:33:08;19.50;67.90
12977;DHT22;6553;48.412;9.514;2023-05-10T07:35:35;19.50;67.90
12977;DHT22;6553;48.412;9.514;2023-05-10T07:38:01;19.50;67.90
12977;DHT22;6553;48.412;9.514;2023-05-10T07:40:28;19.50;67.90
12977;DHT22;6553;48.412;9.514;2023-05-10T07:42:54;19.50;67.90
12977;DHT22;6553;48.412;9.514;2023-05-10T07:45:20;19.50;67.90
12977;DHT22;6553;48.412;9.514;2023-05-10T07:47:46;19.50;67.90
12977;DHT22;6553;48.412;9.514;2023-05-10T07:50:12;19.50;67.80
12977;DHT22;6553;48.412;9.514;2023-05-10T07:52:38;19.50;67.80
12977;DHT22;6553;48.412;9.514;2023-05-10T07:55:04;19.50;67.80
12977;DHT22;6553;48.412;9.514;2023-05-10T07:57:30;19.50;67.90
12977;DHT22;6553;48.412;9.514;2023-05-10T07:59:56;19.50;67.80
12977;DHT22;6553;48.412;9.514;2023-05-10T08:02:21;19.50;67.70
12977;DHT22;6553;48.412;9.514;2023-05-10T08:04:47;19.50;67.80
12977;DHT22;6553;48.412;9.514;2023-05-10T08:07:13;19.50;67.70
12977;DHT22;6553;48.412;9.514;2023-05-10T08:09:39;19.50;67.70
12977;DHT22;6553;48.412;9.514;2023-05-10T08:12:05;19.50;67.60
12977;DHT22;6553;48.412;9.514;2023-05-10T08:14:31;19.50;67.60
12977;DHT22;6553;48.412;9.514;2023-05-10T08:16:57;19.50;67.60
12977;DHT22;6553;48.412;9.514;2023-05-10T08:19:22;19.50;67.60
12977;DHT22;6553;48.412;9.514;2023-05-10T08:21:49;19.50;67.50
12977;DHT22;6553;48.412;9.514;2023-05-10T08:24:15;19.60;67.60
12977;DHT22;6553;48.412;9.514;2023-05-10T08:26:40;19.50;67.50
12977;DHT22;6553;48.412;9.514;2023-05-10T08:29:06;19.50;67.50
12977;DHT22;6553;48.412;9.514;2023-05-10T08:31:32;19.50;67.50
12977;DHT22;6553;48.412;9.514;2023-05-10T08:33:58;19.50;67.50
12977;DHT22;6553;48.412;9.514;2023-05-10T08:36:23;19.60;67.60
12977;DHT22;6553;48.412;9.514;2023-05-10T08:38:53;19.60;67.60
12977;DHT22;6553;48.412;9.514;2023-05-10T08:41:23;19.60;67.60
12977;DHT22;6553;48.412;9.514;2023-05-10T08:43:55;19.60;67.60
12977;DHT22;6553;48.412;9.514;2023-05-10T08:46:22;19.60;67.50
12977;DHT22;6553;48.412;9.514;2023-05-10T08:48:50;19.60;67.60
12977;DHT22;6553;48.412;9.514;2023-05-10T08:51:19;19.60;67.50
12977;DHT22;6553;48.412;9.514;2023-05-10T08:53:50;19.60;67.40
12977;DHT22;6553;48.412;9.514;2023-05-10T08:56:16;19.60;67.30
12977;DHT22;6553;48.412;9.514;2023-05-10T08:58:43;19.60;67.40
12977;DHT22;6553;48.412;9.514;2023-05-10T09:01:09;19.60;67.30
12977;DHT22;6553;48.412;9.514;2023-05-10T09:03:38;19.60;67.20
12977;DHT22;6553;48.412;9.514;2023-05-10T09:06:04;19.60;67.30
12977;DHT22;6553;48.412;9.514;2023-05-10T09:08:30;19.60;67.30
12977;DHT22;6553;48.412;9.514;2023-05-10T09:10:57;19.60;67.20
12977;DHT22;6553;48.412;9.514;2023-05-10T09:13:23;19.70;67.40
12977;DHT22;6553;48.412;9.514;2023-05-10T09:15:51;19.60;67.20
12977;DHT22;6553;48.412;9.514;2023-05-10T09:18:18;19.70;67.30
12977;DHT22;6553;48.412;9.514;2023-05-10T09:20:44;19.70;67.30
12977;DHT22;6553;48.412;9.514;2023-05-10T09:23:10;19.70;67.20
12977;DHT22;6553;48.412;9.514;2023-05-10T09:25:36;19.70;67.20
12977;DHT22;6553;48.412;9.514;2023-05-10T09:28:06;19.60;67.00
12977;DHT22;6553;48.412;9.514;2023-05-10T09:30:34;19.70;67.10
12977;DHT22;6553;48.412;9.514;2023-05-10T09:33:00;19.70;67.10
12977;DHT22;6553;48.412;9.514;2023-05-10T09:35:28;19.70;67.30
12977;DHT22;6553;48.412;9.514;2023-05-10T09:37:58;19.70;67.20
12977;DHT22;6553;48.412;9.514;2023-05-10T09:40:27;19.70;67.20
12977;DHT22;6553;48.412;9.514;2023-05-10T09:45:33;19.70;67.40
12977;DHT22;6553;48.412;9.514;2023-05-10T09:48:01;19.70;67.60
12977;DHT22;6553;48.412;9.514;2023-05-10T09:50:29;19.60;67.60
12977;DHT22;6553;48.412;9.514;2023-05-10T09:52:58;19.70;68.00
12977;DHT22;6553;48.412;9.514;2023-05-10T09:55:37;19.70;67.60
12977;DHT22;6553;48.412;9.514;2023-05-10T09:58:07;19.70;67.50
12977;DHT22;6553;48.412;9.514;2023-05-10T10:00:43;19.70;67.20
12977;DHT22;6553;48.412;9.514;2023-05-10T10:03:14;19.70;67.30
12977;DHT22;6553;48.412;9.514;2023-05-10T10:05:42;19.70;67.20
12977;DHT22;6553;48.412;9.514;2023-05-10T10:08:09;19.70;67.50
12977;DHT22;6553;48.412;9.514;2023-05-10T10:10:35;19.70;67.60
12977;DHT22;6553;48.412;9.514;2023-05-10T10:13:02;19.70;67.60
12977;DHT22;6553;48.412;9.514;2023-05-10T10:15:28;19.70;67.40
12977;DHT22;6553;48.412;9.514;2023-05-10T10:17:54;19.70;67.40
12977;DHT22;6553;48.412;9.514;2023-05-10T10:20:21;19.70;67.30
12977;DHT22;6553;48.412;9.514;2023-05-10T10:22:48;19.70;67.20
12977;DHT22;6553;48.412;9.514;2023-05-10T10:25:16;19.70;67.20
12977;DHT22;6553;48.412;9.514;2023-05-10T10:30:21;19.70;67.10
12977;DHT22;6553;48.412;9.514;2023-05-10T10:36:21;19.70;67.00
12977;DHT22;6553;48.412;9.514;2023-05-10T10:41:32;19.70;66.90
12977;DHT22;6553;48.412;9.514;2023-05-10T10:50:06;19.70;67.00
12977;DHT22;6553;48.412;9.514;2023-05-10T10:52:36;19.70;66.90
12977;DHT22;6553;48.412;9.514;2023-05-10T10:55:07;19.70;67.00
12977;DHT22;6553;48.412;9.514;2023-05-10T11:00:19;19.60;66.90
12977;DHT22;6553;48.412;9.514;2023-05-10T11:05:58;19.60;67.00
12977;DHT22;6553;48.412;9.514;2023-05-10T11:08:27;19.60;67.30
12977;DHT22;6553;48.412;9.514;2023-05-10T11:13:34;19.60;66.90
12977;DHT22;6553;48.412;9.514;2023-05-10T11:16:40;19.60;66.90
12977;DHT22;6553;48.412;9.514;2023-05-10T11:19:08;19.60;66.80
12977;DHT22;6553;48.412;9.514;2023-05-10T11:21:46;19.70;67.00
12977;DHT22;6553;48.412;9.514;2023-05-10T11:24:18;19.70;67.00
12977;DHT22;6553;48.412;9.514;2023-05-10T11:26:49;19.70;66.90
12977;DHT22;6553;48.412;9.514;2023-05-10T11:29:17;19.70;67.00
12977;DHT22;6553;48.412;9.514;2023-05-10T11:31:46;19.70;67.00
12977;DHT22;6553;48.412;9.514;2023-05-10T11:34:28;19.70;66.90
12977;DHT22;6553;48.412;9.514;2023-05-10T11:36:56;19.70;66.90
12977;DHT22;6553;48.412;9.514;2023-05-10T11:39:27;19.70;67.00
12977;DHT22;6553;48.412;9.514;2023-05-10T11:41:54;19.70;66.90
12977;DHT22;6553;48.412;9.514;2023-05-10T11:44:20;19.70;66.60
12977;DHT22;6553;48.412;9.514;2023-05-10T11:46:46;19.70;66.60
12977;DHT22;6553;48.412;9.514;2023-05-10T11:49:11;19.70;66.80
12977;DHT22;6553;48.412;9.514;2023-05-10T11:51:38;19.70;66.60
12977;DHT22;6553;48.412;9.514;2023-05-10T11:54:10;19.70;66.80
12977;DHT22;6553;48.412;9.514;2023-05-10T11:56:40;19.70;67.40
12977;DHT22;6553;48.412;9.514;2023-05-10T11:59:06;19.70;66.60
12977;DHT22;6553;48.412;9.514;2023-05-10T12:01:33;19.70;66.70
12977;DHT22;6553;48.412;9.514;2023-05-10T12:04:00;19.70;66.90
12977;DHT22;6553;48.412;9.514;2023-05-10T12:06:28;19.70;66.80
12977;DHT22;6553;48.412;9.514;2023-05-10T12:08:57;19.70;66.70
12977;DHT22;6553;48.412;9.514;2023-05-10T12:11:27;19.70;66.60
12977;DHT22;6553;48.412;9.514;2023-05-10T12:13:54;19.70;66.60
12977;DHT22;6553;48.412;9.514;2023-05-10T12:16:28;19.70;66.60
12977;DHT22;6553;48.412;9.514;2023-05-10T12:18:57;19.70;66.60
12977;DHT22;6553;48.412;9.514;2023-05-10T12:21:25;19.70;66.60
12977;DHT22;6553;48.412;9.514;2023-05-10T12:23:54;19.70;66.60
12977;DHT22;6553;48.412;9.514;2023-05-10T12:26:25;19.70;66.90
12977;DHT22;6553;48.412;9.514;2023-05-10T12:28:54;19.70;66.60
12977;DHT22;6553;48.412;9.514;2023-05-10T12:31:20;19.70;66.60
12977;DHT22;6553;48.412;9.514;2023-05-10T12:33:46;19.70;66.90
12977;DHT22;6553;48.412;9.514;2023-05-10T12:36:15;19.70;67.10
12977;DHT22;6553;48.412;9.514;2023-05-10T12:38:44;19.70;66.70
12977;DHT22;6553;48.412;9.514;2023-05-10T12:41:17;19.70;66.90
12977;DHT22;6553;48.412;9.514;2023-05-10T12:43:44;19.70;66.60
12977;DHT22;6553;48.412;9.514;2023-05-10T12:46:16;19.70;66.60
12977;DHT22;6553;48.412;9.514;2023-05-10T12:48:43;19.70;66.60
12977;DHT22;6553;48.412;9.514;2023-05-10T12:51:10;19.60;66.80
12977;DHT22;6553;48.412;9.514;2023-05-10T12:53:38;19.70;66.80
12977;DHT22;6553;48.412;9.514;2023-05-10T12:56:05;19.70;66.60
12977;DHT22;6553;48.412;9.514;2023-05-10T12:58:31;19.70;66.40
12977;DHT22;6553;48.412;9.514;2023-05-10T13:00:58;19.70;66.50
12977;DHT22;6553;48.412;9.514;2023-05-10T13:03:24;19.70;66.60
12977;DHT22;6553;48.412;9.514;2023-05-10T13:05:50;19.70;66.60
12977;DHT22;6553;48.412;9.514;2023-05-10T13:08:16;19.70;66.60
12977;DHT22;6553;48.412;9.514;2023-05-10T13:10:41;19.70;66.60
12977;DHT22;6553;48.412;9.514;2023-05-10T13:13:07;19.70;66.60
12977;DHT22;6553;48.412;9.514;2023-05-10T13:15:34;19.70;67.30
12977;DHT22;6553;48.412;9.514;2023-05-10T13:18:00;19.70;66.70
12977;DHT22;6553;48.412;9.514;2023-05-10T13:20:26;19.70;66.60
12977;DHT22;6553;48.412;9.514;2023-05-10T13:22:52;19.70;66.50
12977;DHT22;6553;48.412;9.514;2023-05-10T13:25:18;19.70;66.10
12977;DHT22;6553;48.412;9.514;2023-05-10T13:27:45;19.70;66.00
12977;DHT22;6553;48.412;9.514;2023-05-10T13:30:11;19.70;65.90
12977;DHT22;6553;48.412;9.514;2023-05-10T13:32:37;19.70;66.00
12977;DHT22;6553;48.412;9.514;2023-05-10T13:35:04;19.70;66.20
12977;DHT22;6553;48.412;9.514;2023-05-10T13:37:31;19.70;66.00
12977;DHT22;6553;48.412;9.514;2023-05-10T13:39:57;19.70;66.10
12977;DHT22;6553;48.412;9.514;2023-05-10T13:42:23;19.70;66.00
12977;DHT22;6553;48.412;9.514;2023-05-10T13:44:50;19.70;66.30
12977;DHT22;6553;48.412;9.514;2023-05-10T13:47:16;19.70;66.10
12977;DHT22;6553;48.412;9.514;2023-05-10T13:49:42;19.70;66.20
12977;DHT22;6553;48.412;9.514;2023-05-10T13:52:08;19.70;66.10
12977;DHT22;6553;48.412;9.514;2023-05-10T13:54:36;19.70;65.80
12977;DHT22;6553;48.412;9.514;2023-05-10T13:57:03;19.70;65.50
12977;DHT22;6553;48.412;9.514;2023-05-10T13:59:30;19.70;66.40
12977;DHT22;6553;48.412;9.514;2023-05-10T14:01:59;19.70;65.70
12977;DHT22;6553;48.412;9.514;2023-05-10T14:04:26;19.70;65.80
12977;DHT22;6553;48.412;9.514;2023-05-10T14:06:51;19.70;65.80
12977;DHT22;6553;48.412;9.514;2023-05-10T14:09:18;19.70;66.00
12977;DHT22;6553;48.412;9.514;2023-05-10T14:11:44;19.70;66.20
12977;DHT22;6553;48.412;9.514;2023-05-10T14:14:11;19.70;65.80
12977;DHT22;6553;48.412;9.514;2023-05-10T14:16:41;19.70;65.80
12977;DHT22;6553;48.412;9.514;2023-05-10T14:19:09;19.70;66.00
12977;DHT22;6553;48.412;9.514;2023-05-10T14:21:35;19.70;66.00
12977;DHT22;6553;48.412;9.514;2023-05-10T14:24:00;19.70;65.90
12977;DHT22;6553;48.412;9.514;2023-05-10T14:26:26;19.70;65.70
12977;DHT22;6553;48.412;9.514;2023-05-10T14:28:52;19.70;66.10
12977;DHT22;6553;48.412;9.514;2023-05-10T14:31:18;19.70;66.00
12977;DHT22;6553;48.412;9.514;2023-05-10T14:33:46;19.70;66.10
12977;DHT22;6553;48.412;9.514;2023-05-10T14:36:12;19.70;66.20
12977;DHT22;6553;48.412;9.514;2023-05-10T14:38:39;19.70;66.10
12977;DHT22;6553;48.412;9.514;2023-05-10T14:41:05;19.70;65.90
12977;DHT22;6553;48.412;9.514;2023-05-10T14:43:31;19.70;66.00
12977;DHT22;6553;48.412;9.514;2023-05-10T14:45:57;19.70;66.10
12977;DHT22;6553;48.412;9.514;2023-05-10T14:48:23;19.70;66.10
12977;DHT22;6553;48.412;9.514;2023-05-10T14:50:49;19.70;66.20
12977;DHT22;6553;48.412;9.514;2023-05-10T14:53:15;19.70;66.30
12977;DHT22;6553;48.412;9.514;2023-05-10T14:55:41;19.70;66.20
12977;DHT22;6553;48.412;9.514;2023-05-10T14:58:07;19.70;66.00
12977;DHT22;6553;48.412;9.514;2023-05-10T15:00:33;19.70;66.00
12977;DHT22;6553;48.412;9.514;2023-05-10T15:02:59;19.70;66.00
12977;DHT22;6553;48.412;9.514;2023-05-10T15:05:24;19.70;66.30
12977;DHT22;6553;48.412;9.514;2023-05-10T15:07:50;19.70;66.30
12977;DHT22;6553;48.412;9.514;2023-05-10T15:10:16;19.70;66.30
12977;DHT22;6553;48.412;9.514;2023-05-10T15:12:42;19.70;66.10
12977;DHT22;6553;48.412;9.514;2023-05-10T15:15:08;19.70;66.20
12977;DHT22;6553;48.412;9.514;2023-05-10T15:17:34;19.70;66.20
12977;DHT22;6553;48.412;9.514;2023-05-10T15:20:00;19.70;66.20
12977;DHT22;6553;48.412;9.514;2023-05-10T15:22:29;19.70;66.10
12977;DHT22;6553;48.412;9.514;2023-05-10T15:24:57;19.70;66.20
12977;DHT22;6553;48.412;9.514;2023-05-10T15:27:24;19.70;66.10
12977;DHT22;6553;48.412;9.514;2023-05-10T15:29:51;19.70;66.10
12977;DHT22;6553;48.412;9.514;2023-05-10T15:32:17;19.70;66.10
12977;DHT22;6553;48.412;9.514;2023-05-10T15:34:42;19.70;66.10
12977;DHT22;6553;48.412;9.514;2023-05-10T15:37:08;19.70;66.30
12977;DHT22;6553;48.412;9.514;2023-05-10T15:39:35;19.70;66.10
12977;DHT22;6553;48.412;9.514;2023-05-10T15:42:00;19.70;66.00
12977;DHT22;6553;48.412;9.514;2023-05-10T15:44:26;19.70;66.00
12977;DHT22;6553;48.412;9.514;2023-05-10T15:46:52;19.70;66.20
12977;DHT22;6553;48.412;9.514;2023-05-10T15:49:18;19.70;66.10
12977;DHT22;6553;48.412;9.514;2023-05-10T15:51:44;19.70;66.10
12977;DHT22;6553;48.412;9.514;2023-05-10T15:54:09;19.70;66.10
12977;DHT22;6553;48.412;9.514;2023-05-10T15:56:35;19.70;66.00
12977;DHT22;6553;48.412;9.514;2023-05-10T15:59:01;19.70;66.00
12977;DHT22;6553;48.412;9.514;2023-05-10T16:01:28;19.70;66.00
12977;DHT22;6553;48.412;9.514;2023-05-10T16:03:55;19.60;65.80
12977;DHT22;6553;48.412;9.514;2023-05-10T16:06:20;19.70;66.00
12977;DHT22;6553;48.412;9.514;2023-05-10T16:08:46;19.60;65.90
12977;DHT22;6553;48.412;9.514;2023-05-10T16:11:12;19.60;66.00
12977;DHT22;6553;48.412;9.514;2023-05-10T16:13:38;19.70;66.10
12977;DHT22;6553;48.412;9.514;2023-05-10T16:16:03;19.60;66.00
12977;DHT22;6553;48.412;9.514;2023-05-10T16:18:29;19.60;66.00
12977;DHT22;6553;48.412;9.514;2023-05-10T16:20:55;19.60;66.10
12977;DHT22;6553;48.412;9.514;2023-05-10T16:23:21;19.60;66.00
12977;DHT22;6553;48.412;9.514;2023-05-10T16:25:47;19.60;66.10
12977;DHT22;6553;48.412;9.514;2023-05-10T16:28:12;19.60;66.00
12977;DHT22;6553;48.412;9.514;2023-05-10T16:30:38;19.60;66.10
12977;DHT22;6553;48.412;9.514;2023-05-10T16:33:04;19.60;66.10
12977;DHT22;6553;48.412;9.514;2023-05-10T16:35:30;19.60;66.00